sensor_id;sensor_type;location;lat;lon;timestamp;temperature;humidity
66962;HTU21D;53897;51.126;5.868;2023-03-01T00:01:21;21.85;35.51
66962;HTU21D;53897;51.126;5.868;2023-03-01T00:03:47;21.84;35.44
66962;HTU21D;53897;51.126;5.868;2023-03-01T00:06:13;21.81;35.40
66962;HTU21D;53897;51.126;5.868;2023-03-01T00:08:39;21.80;35.39
66962;HTU21D;53897;51.126;5.868;2023-03-01T00:11:19;21.79;35.18
66962;HTU21D;53897;51.126;5.868;2023-03-01T00:13:47;21.76;35.11
66962;HTU21D;53897;51.126;5.868;2023-03-01T00:16:16;21.74;35.06
66962;HTU21D;53897;51.126;5.868;2023-03-01T00:18:43;21.72;35.11
66962;HTU21D;53897;51.126;5.868;2023-03-01T00:21:09;21.70;35.05
66962;HTU21D;53897;51.126;5.868;2023-03-01T00:23:35;21.68;35.04
66962;HTU21D;53897;51.126;5.868;2023-03-01T00:26:01;21.66;34.99
66962;HTU21D;53897;51.126;5.868;2023-03-01T00:28:27;21.65;34.95
66962;HTU21D;53897;51.126;5.868;2023-03-01T00:30:52;21.63;34.86
66962;HTU21D;53897;51.126;5.868;2023-03-01T00:33:18;21.60;34.86
66962;HTU21D;53897;51.126;5.868;2023-03-01T00:35:44;21.60;34.81
66962;HTU21D;53897;51.126;5.868;2023-03-01T00:38:10;21.57;34.81
66962;HTU21D;53897;51.126;5.868;2023-03-01T00:40:37;21.57;34.75
66962;HTU21D;53897;51.126;5.868;2023-03-01T00:43:03;21.53;34.75
66962;HTU21D;53897;51.126;5.868;2023-03-01T00:45:29;21.51;34.74
66962;HTU21D;53897;51.126;5.868;2023-03-01T00:47:57;21.51;34.76
66962;HTU21D;53897;51.126;5.868;2023-03-01T00:50:24;21.48;34.76
66962;HTU21D;53897;51.126;5.868;2023-03-01T00:52:56;21.47;34.79
66962;HTU21D;53897;51.126;5.868;2023-03-01T00:55:22;21.45;34.81
66962;HTU21D;53897;51.126;5.868;2023-03-01T00:57:47;21.42;34.79
66962;HTU21D;53897;51.126;5.868;2023-03-01T01:00:13;21.40;34.76
66962;HTU21D;53897;51.126;5.868;2023-03-01T01:02:40;21.39;34.76
66962;HTU21D;53897;51.126;5.868;2023-03-01T01:05:06;21.37;34.75
66962;HTU21D;53897;51.126;5.868;2023-03-01T01:07:32;21.36;34.68
66962;HTU21D;53897;51.126;5.868;2023-03-01T01:09:58;21.33;34.66
66962;HTU21D;53897;51.126;5.868;2023-03-01T01:12:24;21.34;34.65
66962;HTU21D;53897;51.126;5.868;2023-03-01T01:14:49;21.32;34.61
66962;HTU21D;53897;51.126;5.868;2023-03-01T01:17:15;21.30;34.61
66962;HTU21D;53897;51.126;5.868;2023-03-01T01:19:41;21.28;34.59
66962;HTU21D;53897;51.126;5.868;2023-03-01T01:22:06;21.25;34.57
66962;HTU21D;53897;51.126;5.868;2023-03-01T01:24:32;21.25;34.52
66962;HTU21D;53897;51.126;5.868;2023-03-01T01:26:58;21.22;34.52
66962;HTU21D;53897;51.126;5.868;2023-03-01T01:29:23;21.20;34.48
66962;HTU21D;53897;51.126;5.868;2023-03-01T01:31:49;21.19;34.49
66962;HTU21D;53897;51.126;5.868;2023-03-01T01:34:18;21.18;34.44
66962;HTU21D;53897;51.126;5.868;2023-03-01T01:36:48;21.16;34.39
66962;HTU21D;53897;51.126;5.868;2023-03-01T01:39:14;21.15;34.26
66962;HTU21D;53897;51.126;5.868;2023-03-01T01:41:41;21.15;34.12
66962;HTU21D;53897;51.126;5.868;2023-03-01T01:44:20;21.11;34.11
66962;HTU21D;53897;51.126;5.868;2023-03-01T01:47:05;21.11;34.21
66962;HTU21D;53897;51.126;5.868;2023-03-01T01:49:39;21.08;34.21
66962;HTU21D;53897;51.126;5.868;2023-03-01T01:52:27;21.06;34.13
66962;HTU21D;53897;51.126;5.868;2023-03-01T01:55:10;21.05;34.05
66962;HTU21D;53897;51.126;5.868;2023-03-01T01:57:42;21.04;34.04
66962;HTU21D;53897;51.126;5.868;2023-03-01T02:00:16;21.03;33.92
66962;HTU21D;53897;51.126;5.868;2023-03-01T02:02:45;21.02;33.86
66962;HTU21D;53897;51.126;5.868;2023-03-01T02:05:30;21.02;33.82
66962;HTU21D;53897;51.126;5.868;2023-03-01T02:07:59;20.99;33.75
66962;HTU21D;53897;51.126;5.868;2023-03-01T02:10:27;20.98;33.68
66962;HTU21D;53897;51.126;5.868;2023-03-01T02:12:55;20.94;33.63
66962;HTU21D;53897;51.126;5.868;2023-03-01T02:15:23;20.93;33.63
66962;HTU21D;53897;51.126;5.868;2023-03-01T02:17:49;20.93;33.60
66962;HTU21D;53897;51.126;5.868;2023-03-01T02:21:11;20.91;33.60
66962;HTU21D;53897;51.126;5.868;2023-03-01T02:23:16;20.89;33.54
66962;HTU21D;53897;51.126;5.868;2023-03-01T02:26:06;20.88;33.49
66962;HTU21D;53897;51.126;5.868;2023-03-01T02:28:37;20.87;33.42
66962;HTU21D;53897;51.126;5.868;2023-03-01T02:31:06;20.86;33.43
66962;HTU21D;53897;51.126;5.868;2023-03-01T02:33:51;20.84;33.38
66962;HTU21D;53897;51.126;5.868;2023-03-01T02:36:30;20.81;33.35
66962;HTU21D;53897;51.126;5.868;2023-03-01T02:39:02;20.80;33.34
66962;HTU21D;53897;51.126;5.868;2023-03-01T02:41:33;20.78;33.35
66962;HTU21D;53897;51.126;5.868;2023-03-01T02:44:01;20.78;33.33
66962;HTU21D;53897;51.126;5.868;2023-03-01T02:46:28;20.76;33.34
66962;HTU21D;53897;51.126;5.868;2023-03-01T02:48:57;20.74;33.30
66962;HTU21D;53897;51.126;5.868;2023-03-01T02:54:08;20.72;33.25
66962;HTU21D;53897;51.126;5.868;2023-03-01T02:56:35;20.71;33.27
66962;HTU21D;53897;51.126;5.868;2023-03-01T02:59:02;20.69;33.28
66962;HTU21D;53897;51.126;5.868;2023-03-01T03:01:29;20.69;33.25
66962;HTU21D;53897;51.126;5.868;2023-03-01T03:04:09;20.68;33.21
66962;HTU21D;53897;51.126;5.868;2023-03-01T03:06:36;20.64;33.18
66962;HTU21D;53897;51.126;5.868;2023-03-01T03:09:03;20.63;33.22
66962;HTU21D;53897;51.126;5.868;2023-03-01T03:11:30;20.63;33.22
66962;HTU21D;53897;51.126;5.868;2023-03-01T03:13:57;20.61;33.18
66962;HTU21D;53897;51.126;5.868;2023-03-01T03:16:23;20.60;33.18
66962;HTU21D;53897;51.126;5.868;2023-03-01T03:18:50;20.58;33.13
66962;HTU21D;53897;51.126;5.868;2023-03-01T03:21:16;20.58;33.11
66962;HTU21D;53897;51.126;5.868;2023-03-01T03:23:43;20.57;33.09
66962;HTU21D;53897;51.126;5.868;2023-03-01T03:26:08;20.54;33.06
66962;HTU21D;53897;51.126;5.868;2023-03-01T03:28:38;20.54;33.08
66962;HTU21D;53897;51.126;5.868;2023-03-01T03:31:07;20.54;33.14
66962;HTU21D;53897;51.126;5.868;2023-03-01T03:33:33;20.51;33.15
66962;HTU21D;53897;51.126;5.868;2023-03-01T03:35:58;20.50;33.22
66962;HTU21D;53897;51.126;5.868;2023-03-01T03:38:24;20.49;33.18
66962;HTU21D;53897;51.126;5.868;2023-03-01T03:41:01;20.47;33.15
66962;HTU21D;53897;51.126;5.868;2023-03-01T03:43:29;20.46;33.16
66962;HTU21D;53897;51.126;5.868;2023-03-01T03:45:55;20.45;33.25
66962;HTU21D;53897;51.126;5.868;2023-03-01T03:48:24;20.44;33.22
66962;HTU21D;53897;51.126;5.868;2023-03-01T03:50:54;20.43;33.22
66962;HTU21D;53897;51.126;5.868;2023-03-01T03:53:22;20.42;33.15
66962;HTU21D;53897;51.126;5.868;2023-03-01T03:55:48;20.41;33.21
66962;HTU21D;53897;51.126;5.868;2023-03-01T03:58:15;20.41;33.18
66962;HTU21D;53897;51.126;5.868;2023-03-01T04:00:44;20.39;33.24
66962;HTU21D;53897;51.126;5.868;2023-03-01T04:03:13;20.36;33.34
66962;HTU21D;53897;51.126;5.868;2023-03-01T04:05:40;20.36;33.33
66962;HTU21D;53897;51.126;5.868;2023-03-01T04:08:06;20.35;33.33
66962;HTU21D;53897;51.126;5.868;2023-03-01T04:10:38;20.34;33.36
66962;HTU21D;53897;51.126;5.868;2023-03-01T04:13:06;20.33;33.36
66962;HTU21D;53897;51.126;5.868;2023-03-01T04:15:33;20.31;33.41
66962;HTU21D;53897;51.126;5.868;2023-03-01T04:18:00;20.30;33.40
66962;HTU21D;53897;51.126;5.868;2023-03-01T04:20:29;20.29;33.41
66962;HTU21D;53897;51.126;5.868;2023-03-01T04:23:10;20.28;33.52
66962;HTU21D;53897;51.126;5.868;2023-03-01T04:25:41;20.27;33.31
66962;HTU21D;53897;51.126;5.868;2023-03-01T04:28:08;20.26;33.27
66962;HTU21D;53897;51.126;5.868;2023-03-01T04:30:35;20.24;33.27
66962;HTU21D;53897;51.126;5.868;2023-03-01T04:33:04;20.22;33.39
66962;HTU21D;53897;51.126;5.868;2023-03-01T04:35:31;20.21;33.44
66962;HTU21D;53897;51.126;5.868;2023-03-01T04:37:57;20.20;33.37
66962;HTU21D;53897;51.126;5.868;2023-03-01T04:40:23;20.19;33.41
66962;HTU21D;53897;51.126;5.868;2023-03-01T04:42:49;20.18;33.41
66962;HTU21D;53897;51.126;5.868;2023-03-01T04:45:14;20.17;33.35
66962;HTU21D;53897;51.126;5.868;2023-03-01T04:47:41;20.16;33.40
66962;HTU21D;53897;51.126;5.868;2023-03-01T04:50:08;20.15;33.47
66962;HTU21D;53897;51.126;5.868;2023-03-01T04:52:35;20.13;33.42
66962;HTU21D;53897;51.126;5.868;2023-03-01T04:55:01;20.13;33.27
66962;HTU21D;53897;51.126;5.868;2023-03-01T04:57:27;20.11;33.32
66962;HTU21D;53897;51.126;5.868;2023-03-01T04:59:53;20.11;33.32
66962;HTU21D;53897;51.126;5.868;2023-03-01T05:02:19;20.10;33.36
66962;HTU21D;53897;51.126;5.868;2023-03-01T05:04:44;20.09;33.34
66962;HTU21D;53897;51.126;5.868;2023-03-01T05:07:10;20.06;33.35
66962;HTU21D;53897;51.126;5.868;2023-03-01T05:09:38;20.06;33.35
66962;HTU21D;53897;51.126;5.868;2023-03-01T05:12:04;20.04;33.34
66962;HTU21D;53897;51.126;5.868;2023-03-01T05:14:30;20.04;33.37
66962;HTU21D;53897;51.126;5.868;2023-03-01T05:16:56;20.02;33.38
66962;HTU21D;53897;51.126;5.868;2023-03-01T05:19:30;20.01;33.28
66962;HTU21D;53897;51.126;5.868;2023-03-01T05:21:57;20.02;33.28
66962;HTU21D;53897;51.126;5.868;2023-03-01T05:24:35;19.99;33.28
66962;HTU21D;53897;51.126;5.868;2023-03-01T05:27:02;19.99;33.34
66962;HTU21D;53897;51.126;5.868;2023-03-01T05:29:30;19.98;33.38
66962;HTU21D;53897;51.126;5.868;2023-03-01T05:31:58;19.97;33.26
66962;HTU21D;53897;51.126;5.868;2023-03-01T05:34:33;19.94;33.38
66962;HTU21D;53897;51.126;5.868;2023-03-01T05:36:59;19.90;33.49
66962;HTU21D;53897;51.126;5.868;2023-03-01T05:39:27;19.87;33.63
66962;HTU21D;53897;51.126;5.868;2023-03-01T05:41:55;19.84;33.76
66962;HTU21D;53897;51.126;5.868;2023-03-01T05:44:21;19.85;33.76
66962;HTU21D;53897;51.126;5.868;2023-03-01T05:46:47;19.85;33.28
66962;HTU21D;53897;51.126;5.868;2023-03-01T05:49:13;19.82;33.49
66962;HTU21D;53897;51.126;5.868;2023-03-01T05:51:40;19.79;33.64
66962;HTU21D;53897;51.126;5.868;2023-03-01T05:54:07;19.80;33.82
66962;HTU21D;53897;51.126;5.868;2023-03-01T05:56:36;19.84;33.92
66962;HTU21D;53897;51.126;5.868;2023-03-01T05:59:04;19.87;33.95
66962;HTU21D;53897;51.126;5.868;2023-03-01T06:01:34;19.92;34.06
66962;HTU21D;53897;51.126;5.868;2023-03-01T06:04:00;19.99;34.04
66962;HTU21D;53897;51.126;5.868;2023-03-01T06:06:26;20.06;34.11
66962;HTU21D;53897;51.126;5.868;2023-03-01T06:08:52;20.13;34.17
66962;HTU21D;53897;51.126;5.868;2023-03-01T06:11:19;20.21;34.18
66962;HTU21D;53897;51.126;5.868;2023-03-01T06:13:45;20.28;34.19
66962;HTU21D;53897;51.126;5.868;2023-03-01T06:16:11;20.35;34.20
66962;HTU21D;53897;51.126;5.868;2023-03-01T06:18:38;20.43;34.15
66962;HTU21D;53897;51.126;5.868;2023-03-01T06:21:05;20.50;34.04
66962;HTU21D;53897;51.126;5.868;2023-03-01T06:23:31;20.58;33.99
66962;HTU21D;53897;51.126;5.868;2023-03-01T06:25:57;20.65;33.99
66962;HTU21D;53897;51.126;5.868;2023-03-01T06:28:23;20.72;33.90
66962;HTU21D;53897;51.126;5.868;2023-03-01T06:30:52;20.77;33.83
66962;HTU21D;53897;51.126;5.868;2023-03-01T06:33:19;20.84;34.02
66962;HTU21D;53897;51.126;5.868;2023-03-01T06:35:50;20.90;34.13
66962;HTU21D;53897;51.126;5.868;2023-03-01T06:38:16;20.95;34.08
66962;HTU21D;53897;51.126;5.868;2023-03-01T06:40:44;20.98;34.41
66962;HTU21D;53897;51.126;5.868;2023-03-01T06:43:10;21.02;34.56
66962;HTU21D;53897;51.126;5.868;2023-03-01T06:45:37;21.05;34.59
66962;HTU21D;53897;51.126;5.868;2023-03-01T06:48:07;21.07;34.53
66962;HTU21D;53897;51.126;5.868;2023-03-01T06:50:34;21.09;34.49
66962;HTU21D;53897;51.126;5.868;2023-03-01T06:53:00;21.13;34.44
66962;HTU21D;53897;51.126;5.868;2023-03-01T06:55:26;21.17;34.36
66962;HTU21D;53897;51.126;5.868;2023-03-01T06:57:56;21.21;34.40
66962;HTU21D;53897;51.126;5.868;2023-03-01T07:00:23;21.24;34.41
66962;HTU21D;53897;51.126;5.868;2023-03-01T07:02:48;21.28;34.39
66962;HTU21D;53897;51.126;5.868;2023-03-01T07:05:14;21.30;34.32
66962;HTU21D;53897;51.126;5.868;2023-03-01T07:07:40;21.33;34.46
66962;HTU21D;53897;51.126;5.868;2023-03-01T07:10:06;21.36;34.51
66962;HTU21D;53897;51.126;5.868;2023-03-01T07:12:32;21.39;34.50
66962;HTU21D;53897;51.126;5.868;2023-03-01T07:14:58;21.42;34.43
66962;HTU21D;53897;51.126;5.868;2023-03-01T07:17:24;21.44;34.39
66962;HTU21D;53897;51.126;5.868;2023-03-01T07:19:49;21.47;34.17
66962;HTU21D;53897;51.126;5.868;2023-03-01T07:22:15;21.48;33.92
66962;HTU21D;53897;51.126;5.868;2023-03-01T07:24:42;21.50;34.10
66962;HTU21D;53897;51.126;5.868;2023-03-01T07:27:07;21.50;34.18
66962;HTU21D;53897;51.126;5.868;2023-03-01T07:29:33;21.52;34.25
66962;HTU21D;53897;51.126;5.868;2023-03-01T07:31:58;21.53;34.22
66962;HTU21D;53897;51.126;5.868;2023-03-01T07:34:24;21.54;34.25
66962;HTU21D;53897;51.126;5.868;2023-03-01T07:36:50;21.55;34.23
66962;HTU21D;53897;51.126;5.868;2023-03-01T07:39:15;21.57;34.30
66962;HTU21D;53897;51.126;5.868;2023-03-01T07:41:41;21.58;34.34
66962;HTU21D;53897;51.126;5.868;2023-03-01T07:44:07;21.62;34.29
66962;HTU21D;53897;51.126;5.868;2023-03-01T07:46:32;21.64;34.33
66962;HTU21D;53897;51.126;5.868;2023-03-01T07:48:58;21.67;34.18
66962;HTU21D;53897;51.126;5.868;2023-03-01T07:51:24;21.72;34.06
66962;HTU21D;53897;51.126;5.868;2023-03-01T07:53:50;21.74;34.06
66962;HTU21D;53897;51.126;5.868;2023-03-01T07:56:16;21.77;34.25
66962;HTU21D;53897;51.126;5.868;2023-03-01T07:58:44;21.81;34.31
66962;HTU21D;53897;51.126;5.868;2023-03-01T08:01:14;21.85;34.29
66962;HTU21D;53897;51.126;5.868;2023-03-01T08:03:40;21.87;33.99
66962;HTU21D;53897;51.126;5.868;2023-03-01T08:06:08;21.87;34.09
66962;HTU21D;53897;51.126;5.868;2023-03-01T08:08:35;21.84;34.21
66962;HTU21D;53897;51.126;5.868;2023-03-01T08:11:03;21.87;34.34
66962;HTU21D;53897;51.126;5.868;2023-03-01T08:13:30;21.91;34.46
66962;HTU21D;53897;51.126;5.868;2023-03-01T08:16:04;21.94;34.44
66962;HTU21D;53897;51.126;5.868;2023-03-01T08:18:31;21.96;34.37
66962;HTU21D;53897;51.126;5.868;2023-03-01T08:21:05;22.02;34.37
66962;HTU21D;53897;51.126;5.868;2023-03-01T08:23:31;22.04;34.35
66962;HTU21D;53897;51.126;5.868;2023-03-01T08:26:08;22.08;34.24
66962;HTU21D;53897;51.126;5.868;2023-03-01T08:28:34;22.09;34.19
66962;HTU21D;53897;51.126;5.868;2023-03-01T08:31:00;22.11;34.20
66962;HTU21D;53897;51.126;5.868;2023-03-01T08:33:26;22.14;34.18
66962;HTU21D;53897;51.126;5.868;2023-03-01T08:35:52;22.17;34.25
66962;HTU21D;53897;51.126;5.868;2023-03-01T08:38:18;22.19;34.28
66962;HTU21D;53897;51.126;5.868;2023-03-01T08:40:43;22.20;34.33
66962;HTU21D;53897;51.126;5.868;2023-03-01T08:43:09;22.22;34.16
66962;HTU21D;53897;51.126;5.868;2023-03-01T08:45:36;22.23;34.17
66962;HTU21D;53897;51.126;5.868;2023-03-01T08:48:02;22.26;34.28
66962;HTU21D;53897;51.126;5.868;2023-03-01T08:50:27;22.27;34.28
66962;HTU21D;53897;51.126;5.868;2023-03-01T08:52:53;22.29;34.25
66962;HTU21D;53897;51.126;5.868;2023-03-01T08:55:19;22.32;34.21
66962;HTU21D;53897;51.126;5.868;2023-03-01T08:57:44;22.32;34.17
66962;HTU21D;53897;51.126;5.868;2023-03-01T09:00:10;22.33;33.96
66962;HTU21D;53897;51.126;5.868;2023-03-01T09:02:40;22.34;34.04
66962;HTU21D;53897;51.126;5.868;2023-03-01T09:05:06;22.36;33.98
66962;HTU21D;53897;51.126;5.868;2023-03-01T09:07:31;22.37;34.03
66962;HTU21D;53897;51.126;5.868;2023-03-01T09:09:57;22.37;34.05
66962;HTU21D;53897;51.126;5.868;2023-03-01T09:12:23;22.37;34.01
66962;HTU21D;53897;51.126;5.868;2023-03-01T09:14:50;22.37;33.96
66962;HTU21D;53897;51.126;5.868;2023-03-01T09:17:16;22.36;34.03
66962;HTU21D;53897;51.126;5.868;2023-03-01T09:19:41;22.34;34.10
66962;HTU21D;53897;51.126;5.868;2023-03-01T09:22:07;22.34;34.24
66962;HTU21D;53897;51.126;5.868;2023-03-01T09:24:33;22.36;34.27
66962;HTU21D;53897;51.126;5.868;2023-03-01T09:26:58;22.39;34.27
66962;HTU21D;53897;51.126;5.868;2023-03-01T09:29:24;22.39;34.27
66962;HTU21D;53897;51.126;5.868;2023-03-01T09:31:51;22.42;34.22
66962;HTU21D;53897;51.126;5.868;2023-03-01T09:34:21;22.42;34.22
66962;HTU21D;53897;51.126;5.868;2023-03-01T09:36:49;22.44;34.14
66962;HTU21D;53897;51.126;5.868;2023-03-01T09:39:15;22.46;34.08
66962;HTU21D;53897;51.126;5.868;2023-03-01T09:42:02;22.47;34.02
66962;HTU21D;53897;51.126;5.868;2023-03-01T09:46:59;22.49;34.01
66962;HTU21D;53897;51.126;5.868;2023-03-01T09:49:31;22.50;33.75
66962;HTU21D;53897;51.126;5.868;2023-03-01T09:52:23;22.49;33.45
66962;HTU21D;53897;51.126;5.868;2023-03-01T09:54:55;22.47;33.57
66962;HTU21D;53897;51.126;5.868;2023-03-01T09:57:50;22.48;33.60
66962;HTU21D;53897;51.126;5.868;2023-03-01T10:00:30;22.48;33.65
66962;HTU21D;53897;51.126;5.868;2023-03-01T10:06:01;22.50;33.17
66962;HTU21D;53897;51.126;5.868;2023-03-01T10:08:54;22.50;33.15
66962;HTU21D;53897;51.126;5.868;2023-03-01T10:11:28;22.49;33.34
66962;HTU21D;53897;51.126;5.868;2023-03-01T10:17:02;22.50;33.45
66962;HTU21D;53897;51.126;5.868;2023-03-01T10:19:47;22.52;33.47
66962;HTU21D;53897;51.126;5.868;2023-03-01T10:22:28;22.50;33.41
66962;HTU21D;53897;51.126;5.868;2023-03-01T10:24:59;22.52;33.38
66962;HTU21D;53897;51.126;5.868;2023-03-01T10:27:51;22.50;33.44
66962;HTU21D;53897;51.126;5.868;2023-03-01T10:30:35;22.52;33.43
66962;HTU21D;53897;51.126;5.868;2023-03-01T10:33:13;22.52;33.41
66962;HTU21D;53897;51.126;5.868;2023-03-01T10:35:40;22.53;33.43
66962;HTU21D;53897;51.126;5.868;2023-03-01T10:38:12;22.53;33.38
66962;HTU21D;53897;51.126;5.868;2023-03-01T10:40:59;22.53;33.34
66962;HTU21D;53897;51.126;5.868;2023-03-01T10:43:40;22.52;33.35
66962;HTU21D;53897;51.126;5.868;2023-03-01T10:46:29;22.53;33.42
66962;HTU21D;53897;51.126;5.868;2023-03-01T10:49:15;22.54;33.45
66962;HTU21D;53897;51.126;5.868;2023-03-01T10:51:43;22.55;33.41
66962;HTU21D;53897;51.126;5.868;2023-03-01T10:54:22;22.55;33.41
66962;HTU21D;53897;51.126;5.868;2023-03-01T10:57:02;22.55;33.39
66962;HTU21D;53897;51.126;5.868;2023-03-01T10:59:37;22.55;33.39
66962;HTU21D;53897;51.126;5.868;2023-03-01T11:02:29;22.56;33.38
66962;HTU21D;53897;51.126;5.868;2023-03-01T11:07:55;22.57;33.34
66962;HTU21D;53897;51.126;5.868;2023-03-01T11:10:27;22.57;33.32
66962;HTU21D;53897;51.126;5.868;2023-03-01T11:13:11;22.60;33.27
66962;HTU21D;53897;51.126;5.868;2023-03-01T11:15:39;22.60;33.33
66962;HTU21D;53897;51.126;5.868;2023-03-01T11:18:20;22.62;33.53
66962;HTU21D;53897;51.126;5.868;2023-03-01T11:20:46;22.63;33.64
66962;HTU21D;53897;51.126;5.868;2023-03-01T11:23:15;22.62;33.73
66962;HTU21D;53897;51.126;5.868;2023-03-01T11:25:45;22.64;33.72
66962;HTU21D;53897;51.126;5.868;2023-03-01T11:28:19;22.64;33.70
66962;HTU21D;53897;51.126;5.868;2023-03-01T11:30:54;22.64;33.69
66962;HTU21D;53897;51.126;5.868;2023-03-01T11:33:42;22.67;33.70
66962;HTU21D;53897;51.126;5.868;2023-03-01T11:39:05;22.67;33.71
66962;HTU21D;53897;51.126;5.868;2023-03-01T11:41:40;22.68;33.74
66962;HTU21D;53897;51.126;5.868;2023-03-01T11:44:17;22.67;33.41
66962;HTU21D;53897;51.126;5.868;2023-03-01T11:50:04;22.69;33.67
66962;HTU21D;53897;51.126;5.868;2023-03-01T11:58:48;22.73;34.28
66962;HTU21D;53897;51.126;5.868;2023-03-01T12:16:06;22.84;34.83
66962;HTU21D;53897;51.126;5.868;2023-03-01T12:26:59;22.91;34.81
66962;HTU21D;53897;51.126;5.868;2023-03-01T12:32:35;22.92;34.87
66962;HTU21D;53897;51.126;5.868;2023-03-01T12:38:31;22.94;34.84
66962;HTU21D;53897;51.126;5.868;2023-03-01T12:43:22;22.96;34.75
66962;HTU21D;53897;51.126;5.868;2023-03-01T12:46:08;22.98;34.73
66962;HTU21D;53897;51.126;5.868;2023-03-01T12:51:14;22.99;34.70
66962;HTU21D;53897;51.126;5.868;2023-03-01T12:53:48;23.00;34.66
66962;HTU21D;53897;51.126;5.868;2023-03-01T12:56:19;23.01;34.65
66962;HTU21D;53897;51.126;5.868;2023-03-01T13:04:22;23.05;34.58
66962;HTU21D;53897;51.126;5.868;2023-03-01T13:11:58;23.07;33.97
66962;HTU21D;53897;51.126;5.868;2023-03-01T13:16:53;23.07;34.00
66962;HTU21D;53897;51.126;5.868;2023-03-01T13:19:30;23.08;34.02
66962;HTU21D;53897;51.126;5.868;2023-03-01T13:21:58;23.09;34.35
66962;HTU21D;53897;51.126;5.868;2023-03-01T13:29:55;23.13;35.82
66962;HTU21D;53897;51.126;5.868;2023-03-01T13:32:30;23.13;36.47
66962;HTU21D;53897;51.126;5.868;2023-03-01T13:35:02;23.14;36.43
66962;HTU21D;53897;51.126;5.868;2023-03-01T13:37:32;23.15;36.18
66962;HTU21D;53897;51.126;5.868;2023-03-01T13:40:04;23.13;36.13
66962;HTU21D;53897;51.126;5.868;2023-03-01T13:42:40;23.15;36.14
66962;HTU21D;53897;51.126;5.868;2023-03-01T13:45:25;23.14;36.18
66962;HTU21D;53897;51.126;5.868;2023-03-01T13:48:08;23.14;36.12
66962;HTU21D;53897;51.126;5.868;2023-03-01T13:50:43;23.15;36.05
66962;HTU21D;53897;51.126;5.868;2023-03-01T13:53:17;23.14;35.99
66962;HTU21D;53897;51.126;5.868;2023-03-01T13:55:47;23.14;35.92
66962;HTU21D;53897;51.126;5.868;2023-03-01T13:58:23;23.13;35.90
66962;HTU21D;53897;51.126;5.868;2023-03-01T14:01:00;23.13;35.87
66962;HTU21D;53897;51.126;5.868;2023-03-01T14:03:26;23.14;35.85
66962;HTU21D;53897;51.126;5.868;2023-03-01T14:06:03;23.14;35.81
66962;HTU21D;53897;51.126;5.868;2023-03-01T14:08:34;23.15;35.74
66962;HTU21D;53897;51.126;5.868;2023-03-01T14:16:44;23.13;35.63
66962;HTU21D;53897;51.126;5.868;2023-03-01T14:19:21;23.13;35.55
66962;HTU21D;53897;51.126;5.868;2023-03-01T14:22:00;23.12;35.59
66962;HTU21D;53897;51.126;5.868;2023-03-01T14:24:30;23.12;35.60
66962;HTU21D;53897;51.126;5.868;2023-03-01T14:27:01;23.10;35.60
66962;HTU21D;53897;51.126;5.868;2023-03-01T14:29:37;23.11;35.58
66962;HTU21D;53897;51.126;5.868;2023-03-01T14:32:19;23.12;35.56
66962;HTU21D;53897;51.126;5.868;2023-03-01T14:34:50;23.12;35.55
66962;HTU21D;53897;51.126;5.868;2023-03-01T14:37:27;23.13;35.56
66962;HTU21D;53897;51.126;5.868;2023-03-01T14:39:55;23.12;35.50
66962;HTU21D;53897;51.126;5.868;2023-03-01T14:42:23;23.09;35.56
66962;HTU21D;53897;51.126;5.868;2023-03-01T14:44:54;23.09;35.53
66962;HTU21D;53897;51.126;5.868;2023-03-01T14:47:28;23.09;35.49
66962;HTU21D;53897;51.126;5.868;2023-03-01T14:50:40;23.07;35.43
66962;HTU21D;53897;51.126;5.868;2023-03-01T14:53:21;23.03;35.48
66962;HTU21D;53897;51.126;5.868;2023-03-01T14:55:59;23.02;35.53
66962;HTU21D;53897;51.126;5.868;2023-03-01T14:58:28;23.00;35.58
66962;HTU21D;53897;51.126;5.868;2023-03-01T15:00:58;22.98;35.59
66962;HTU21D;53897;51.126;5.868;2023-03-01T15:03:48;22.96;35.63
66962;HTU21D;53897;51.126;5.868;2023-03-01T15:06:20;22.94;35.69
66962;HTU21D;53897;51.126;5.868;2023-03-01T15:08:51;22.93;35.73
66962;HTU21D;53897;51.126;5.868;2023-03-01T15:11:21;22.91;35.72
66962;HTU21D;53897;51.126;5.868;2023-03-01T15:13:51;22.88;35.67
66962;HTU21D;53897;51.126;5.868;2023-03-01T15:16:23;22.91;35.62
66962;HTU21D;53897;51.126;5.868;2023-03-01T15:18:53;22.91;35.56
66962;HTU21D;53897;51.126;5.868;2023-03-01T15:21:33;22.91;35.49
66962;HTU21D;53897;51.126;5.868;2023-03-01T15:26:57;22.93;35.31
66962;HTU21D;53897;51.126;5.868;2023-03-01T15:29:26;22.94;35.24
66962;HTU21D;53897;51.126;5.868;2023-03-01T15:34:42;22.95;35.37
66962;HTU21D;53897;51.126;5.868;2023-03-01T15:37:40;22.94;35.34
66962;HTU21D;53897;51.126;5.868;2023-03-01T15:40:35;22.91;35.43
66962;HTU21D;53897;51.126;5.868;2023-03-01T15:43:05;22.90;35.52
66962;HTU21D;53897;51.126;5.868;2023-03-01T15:45:34;22.85;35.47
66962;HTU21D;53897;51.126;5.868;2023-03-01T15:48:26;22.84;35.63
66962;HTU21D;53897;51.126;5.868;2023-03-01T15:50:59;22.82;35.53
66962;HTU21D;53897;51.126;5.868;2023-03-01T15:53:28;22.76;35.66
66962;HTU21D;53897;51.126;5.868;2023-03-01T15:55:53;22.71;35.69
66962;HTU21D;53897;51.126;5.868;2023-03-01T15:58:22;22.69;35.77
66962;HTU21D;53897;51.126;5.868;2023-03-01T16:00:49;22.69;35.93
66962;HTU21D;53897;51.126;5.868;2023-03-01T16:03:22;22.69;35.97
66962;HTU21D;53897;51.126;5.868;2023-03-01T16:05:49;22.69;35.96
66962;HTU21D;53897;51.126;5.868;2023-03-01T16:08:16;22.72;35.94
66962;HTU21D;53897;51.126;5.868;2023-03-01T16:10:42;22.71;35.76
66962;HTU21D;53897;51.126;5.868;2023-03-01T16:13:12;22.71;35.50
66962;HTU21D;53897;51.126;5.868;2023-03-01T16:15:38;22.75;35.36
66962;HTU21D;53897;51.126;5.868;2023-03-01T16:18:05;22.81;35.04
66962;HTU21D;53897;51.126;5.868;2023-03-01T16:20:31;22.85;34.89
66962;HTU21D;53897;51.126;5.868;2023-03-01T16:22:59;22.93;34.67
66962;HTU21D;53897;51.126;5.868;2023-03-01T16:25:25;22.94;34.74
66962;HTU21D;53897;51.126;5.868;2023-03-01T16:27:51;22.98;34.50
66962;HTU21D;53897;51.126;5.868;2023-03-01T16:30:21;22.99;34.67
66962;HTU21D;53897;51.126;5.868;2023-03-01T16:32:49;23.01;34.70
66962;HTU21D;53897;51.126;5.868;2023-03-01T16:35:17;23.00;34.71
66962;HTU21D;53897;51.126;5.868;2023-03-01T16:37:44;23.00;34.79
66962;HTU21D;53897;51.126;5.868;2023-03-01T16:40:23;22.96;34.95
66962;HTU21D;53897;51.126;5.868;2023-03-01T16:42:50;22.94;34.98
66962;HTU21D;53897;51.126;5.868;2023-03-01T16:45:17;22.93;34.89
66962;HTU21D;53897;51.126;5.868;2023-03-01T16:47:43;22.92;34.81
66962;HTU21D;53897;51.126;5.868;2023-03-01T16:50:09;22.90;34.80
66962;HTU21D;53897;51.126;5.868;2023-03-01T16:52:35;22.88;35.09
66962;HTU21D;53897;51.126;5.868;2023-03-01T16:55:02;22.87;35.50
66962;HTU21D;53897;51.126;5.868;2023-03-01T16:57:29;22.86;35.87
66962;HTU21D;53897;51.126;5.868;2023-03-01T16:59:55;22.86;36.14
66962;HTU21D;53897;51.126;5.868;2023-03-01T17:02:21;22.86;36.31
66962;HTU21D;53897;51.126;5.868;2023-03-01T17:04:54;22.86;36.31